Time;durP1;ratioP1;P1;durP2;ratioP2;P2;SDS_P1;SDS_P2;PMS_P1;PMS_P2;Temp;Humidity;BMP_temperature;BMP_pressure;BME280_temperature;BME280_humidity;BME280_pressure;Samples;Min_cycle;Max_cycle;Signal;HPM_P1;HPM_P2
2022/03/01 00:00:28;;;;;;;15.38;6.97;;;;;;;-0.58;82.96;99658.22;5065115;28;20104;-70
2022/03/01 00:02:54;;;;;;;12.20;6.57;;;;;;;-0.53;83.19;99656.69;5065558;28;20029;-70
2022/03/01 00:05:19;;;;;;;12.57;6.55;;;;;;;-0.35;82.54;99651.34;5065147;28;20287;-70
2022/03/01 00:07:44;;;;;;;21.25;7.90;;;;;;;-0.42;83.02;99658.00;5065355;28;20040;-70
2022/03/01 00:10:10;;;;;;;14.07;7.07;;;;;;;-0.55;82.40;99663.53;5065365;28;20032;-70
2022/03/01 00:12:36;;;;;;;14.60;6.10;;;;;;;-0.39;82.75;99665.91;5065021;28;20020;-70
2022/03/01 00:15:03;;;;;;;17.13;6.22;;;;;;;-0.37;82.41;99658.19;5065360;28;20017;-70
2022/03/01 00:17:28;;;;;;;14.70;7.18;;;;;;;-0.44;82.69;99661.38;5065438;28;20036;-70
2022/03/01 00:19:54;;;;;;;11.93;6.85;;;;;;;-0.42;82.67;99660.59;5065274;28;20079;-70
2022/03/01 00:22:19;;;;;;;12.23;6.63;;;;;;;-0.48;83.32;99654.28;5065110;28;20020;-70
2022/03/01 00:24:45;;;;;;;17.05;7.25;;;;;;;-0.52;83.60;99658.47;5064853;28;20303;-70
2022/03/01 00:27:10;;;;;;;15.05;6.35;;;;;;;-0.56;83.78;99661.75;5064889;28;20092;-70
2022/03/01 00:29:36;;;;;;;14.55;7.10;;;;;;;-0.49;83.10;99668.94;5064847;28;20020;-70
2022/03/01 00:32:01;;;;;;;12.32;5.60;;;;;;;-0.48;82.77;99670.69;5065026;28;20021;-70
2022/03/01 00:34:27;;;;;;;14.32;6.47;;;;;;;-0.32;82.83;99677.34;5064823;28;20021;-70
2022/03/01 00:36:53;;;;;;;15.70;6.95;;;;;;;-0.23;82.51;99678.63;5064628;28;20020;-70
2022/03/01 00:39:18;;;;;;;13.55;7.15;;;;;;;-0.15;81.94;99681.50;5064868;28;20019;-70
2022/03/01 00:41:44;;;;;;;24.60;6.85;;;;;;;-0.10;81.66;99673.09;5064611;28;20052;-70
2022/03/01 00:44:09;;;;;;;19.42;7.40;;;;;;;-0.18;81.33;99677.06;5064616;28;20028;-70
2022/03/01 00:46:35;;;;;;;14.70;6.75;;;;;;;-0.23;81.30;99673.44;5063802;28;20083;-70
2022/03/01 00:49:00;;;;;;;13.15;6.78;;;;;;;-0.32;81.33;99672.19;5064694;28;20033;-70
2022/03/01 00:51:28;;;;;;;14.40;8.02;;;;;;;-0.42;81.33;99670.94;5064479;28;20017;-70
2022/03/01 00:53:54;;;;;;;14.13;6.70;;;;;;;-0.47;81.49;99667.28;5064590;28;20025;-70
2022/03/01 00:56:19;;;;;;;11.98;5.90;;;;;;;-0.47;81.91;99667.28;5064824;28;20032;-70
2022/03/01 00:58:44;;;;;;;13.38;5.82;;;;;;;-0.62;82.58;99664.09;5064739;28;20047;-70
2022/03/01 01:01:10;;;;;;;22.00;8.27;;;;;;;-0.71;82.69;99663.72;5064630;28;20044;-70
2022/03/01 01:03:36;;;;;;;12.20;7.05;;;;;;;-0.79;83.34;99666.81;5064683;28;20086;-70
2022/03/01 01:06:02;;;;;;;16.90;7.30;;;;;;;-0.83;84.09;99660.63;5064601;28;20024;-70
2022/03/01 01:08:28;;;;;;;14.52;6.53;;;;;;;-0.84;83.92;99669.22;5064529;28;20087;-70
2022/03/01 01:10:53;;;;;;;15.02;6.43;;;;;;;-0.88;84.31;99667.28;5064759;28;20027;-70
2022/03/01 01:13:19;;;;;;;22.80;9.00;;;;;;;-0.87;84.44;99652.69;5063864;28;20040;-70
2022/03/01 01:15:44;;;;;;;15.95;6.90;;;;;;;-0.98;84.82;99654.81;5064009;28;20088;-70
2022/03/01 01:18:10;;;;;;;14.00;7.00;;;;;;;-1.02;84.63;99650.34;5064154;28;20017;-70
2022/03/01 01:20:36;;;;;;;11.77;6.13;;;;;;;-0.98;84.40;99652.22;5064104;28;20213;-70
2022/03/01 01:23:03;;;;;;;15.15;7.53;;;;;;;-1.16;84.16;99642.84;5063793;28;20290;-70
2022/03/01 01:25:29;;;;;;;23.50;7.70;;;;;;;-1.12;84.06;99650.78;5063985;28;20320;-69
2022/03/01 01:27:58;;;;;;;14.55;7.25;;;;;;;-1.16;84.19;99643.72;5063785;28;20062;-69
2022/03/01 01:30:26;;;;;;;17.30;7.57;;;;;;;-1.15;84.25;99642.91;5063767;28;20083;-69
2022/03/01 01:32:52;;;;;;;15.18;6.80;;;;;;;-1.10;83.32;99637.94;5063793;28;20145;-69
2022/03/01 01:35:20;;;;;;;14.75;7.25;;;;;;;-1.04;83.53;99633.88;5063686;28;20328;-69
2022/03/01 01:37:46;;;;;;;14.07;8.48;;;;;;;-1.16;83.88;99638.56;5063773;28;20020;-69
2022/03/01 01:40:16;;;;;;;22.92;6.85;;;;;;;-1.16;83.97;99638.56;5063797;28;20217;-69
2022/03/01 01:42:41;;;;;;;16.27;5.82;;;;;;;-1.19;84.19;99643.59;5063599;28;20250;-69
2022/03/01 01:45:08;;;;;;;13.57;6.20;;;;;;;-1.21;84.46;99640.06;5063630;28;20021;-69
2022/03/01 01:47:33;;;;;;;16.77;7.50;;;;;;;-1.18;84.60;99629.84;5063665;28;20312;-69
2022/03/01 01:49:59;;;;;;;19.95;7.85;;;;;;;-1.13;84.47;99638.69;5063569;28;20028;-69
2022/03/01 01:52:25;;;;;;;15.93;6.07;;;;;;;-1.15;84.77;99644.59;5063485;28;20028;-69
2022/03/01 01:54:52;;;;;;;17.90;8.05;;;;;;;-0.99;84.26;99641.84;5063307;28;20025;-69
2022/03/01 01:57:19;;;;;;;16.17;7.13;;;;;;;-0.89;84.72;99650.03;5055243;28;20017;-69
2022/03/01 01:59:46;;;;;;;13.00;6.50;;;;;;;-0.80;84.06;99647.84;5063111;28;20082;-70
2022/03/01 02:02:13;;;;;;;23.50;7.55;;;;;;;-0.69;83.14;99643.09;5063454;28;20029;-69
2022/03/01 02:04:40;;;;;;;18.13;7.53;;;;;;;-0.82;83.33;99636.53;5063444;28;20028;-69
2022/03/01 02:07:08;;;;;;;18.42;8.32;;;;;;;-0.78;83.30;99637.56;5063217;28;20037;-69
2022/03/01 02:09:34;;;;;;;16.05;7.20;;;;;;;-0.85;82.94;99646.75;5063497;28;20021;-69
2022/03/01 02:12:00;;;;;;;19.33;7.53;;;;;;;-0.85;83.29;99640.72;5063314;28;20020;-69
2022/03/01 02:14:25;;;;;;;15.45;7.68;;;;;;;-0.93;82.85;99645.56;5063725;28;20307;-69
2022/03/01 02:16:51;;;;;;;18.60;7.00;;;;;;;-0.96;83.21;99635.09;5063167;28;20317;-69
2022/03/01 02:19:17;;;;;;;14.40;6.90;;;;;;;-0.98;83.23;99634.16;5063268;28;20108;-69
2022/03/01 02:21:56;;;;;;;14.18;6.68;;;;;;;-0.99;83.78;99642.72;5063368;28;20025;-69
2022/03/01 02:24:24;;;;;;;14.88;6.65;;;;;;;-1.04;84.06;99628.72;5062921;28;20071;-69
2022/03/01 02:26:52;;;;;;;18.70;7.05;;;;;;;-1.12;84.34;99627.53;5063165;28;20075;-69
2022/03/01 02:29:18;;;;;;;21.33;8.38;;;;;;;-1.07;83.84;99633.78;5063057;28;20063;-69
2022/03/01 02:31:43;;;;;;;19.83;6.97;;;;;;;-1.01;83.95;99639.19;5063204;28;20029;-69
2022/03/01 02:34:09;;;;;;;17.20;8.55;;;;;;;-1.13;84.16;99633.53;5063068;28;20051;-69
2022/03/01 02:36:34;;;;;;;14.00;6.88;;;;;;;-1.12;84.07;99635.28;5063247;28;20029;-69
2022/03/01 02:38:59;;;;;;;13.50;6.93;;;;;;;-1.26;84.89;99631.25;5063068;28;20027;-69
2022/03/01 02:41:26;;;;;;;18.83;9.05;;;;;;;-1.27;84.91;99626.88;5063225;28;20313;-69
2022/03/01 02:43:52;;;;;;;15.20;7.22;;;;;;;-1.22;84.64;99632.25;5061731;28;20048;-69
2022/03/01 02:46:17;;;;;;;16.25;6.50;;;;;;;-1.18;84.45;99629.84;5062986;28;20032;-69
2022/03/01 02:48:43;;;;;;;20.60;8.65;;;;;;;-1.22;84.69;99633.13;5063114;28;20033;-69
2022/03/01 02:51:08;;;;;;;16.83;7.95;;;;;;;-1.22;85.05;99630.56;5062930;28;20193;-69
2022/03/01 02:53:36;;;;;;;12.25;7.38;;;;;;;-1.17;84.87;99631.59;5062747;28;20075;-69
2022/03/01 02:56:02;;;;;;;18.10;9.15;;;;;;;-1.23;85.19;99626.19;5063064;28;20025;-69
2022/03/01 02:58:28;;;;;;;18.73;7.00;;;;;;;-1.21;85.37;99634.88;5062894;28;20025;-69
2022/03/01 03:00:53;;;;;;;26.60;8.48;;;;;;;-1.28;84.65;99627.72;5062555;28;20079;-69
2022/03/01 03:03:19;;;;;;;29.65;10.25;;;;;;;-1.31;85.04;99627.56;5062906;28;20194;-69
2022/03/01 03:05:44;;;;;;;23.48;8.52;;;;;;;-1.33;85.42;99624.03;5062941;28;20032;-69
2022/03/01 03:08:09;;;;;;;20.67;9.48;;;;;;;-1.38;85.36;99635.88;5062658;28;20025;-69
2022/03/01 03:10:35;;;;;;;14.27;7.43;;;;;;;-1.42;85.33;99634.00;5065082;28;20052;-69
2022/03/01 03:13:01;;;;;;;17.00;8.63;;;;;;;-1.50;85.70;99627.59;5066372;28;20320;-69
2022/03/01 03:15:27;;;;;;;19.40;7.88;;;;;;;-1.44;85.72;99627.88;5066500;28;20079;-69
2022/03/01 03:17:53;;;;;;;22.65;8.55;;;;;;;-1.37;85.36;99624.72;5066453;28;20025;-69
2022/03/01 03:20:18;;;;;;;15.55;7.28;;;;;;;-1.64;85.91;99620.97;5066274;28;20032;-69
2022/03/01 03:22:44;;;;;;;16.02;7.50;;;;;;;-1.69;85.81;99627.63;5066193;28;20113;-69
2022/03/01 03:25:10;;;;;;;22.20;10.10;;;;;;;-1.73;86.08;99627.41;5066090;28;20032;-69
2022/03/01 03:27:35;;;;;;;21.92;8.98;;;;;;;-1.63;86.16;99622.72;5066283;28;20032;-69
2022/03/01 03:30:03;;;;;;;15.35;7.93;;;;;;;-1.53;85.60;99626.56;5066449;28;20045;-69
2022/03/01 03:32:29;;;;;;;24.20;9.95;;;;;;;-1.49;85.51;99626.78;5066634;28;20256;-69
2022/03/01 03:34:54;;;;;;;15.10;9.05;;;;;;;-1.52;84.87;99618.91;5066573;28;20046;-69
2022/03/01 03:37:20;;;;;;;23.05;9.25;;;;;;;-1.60;84.95;99612.53;5066351;28;20048;-69
2022/03/01 03:39:45;;;;;;;33.22;10.60;;;;;;;-1.65;85.16;99623.47;5066332;28;20066;-69
2022/03/01 03:42:11;;;;;;;23.15;8.77;;;;;;;-1.67;85.47;99613.09;5066351;28;20222;-69
2022/03/01 03:44:38;;;;;;;20.73;8.85;;;;;;;-1.74;85.17;99617.91;5066152;28;20032;-69
2022/03/01 03:47:04;;;;;;;19.55;9.60;;;;;;;-1.73;85.55;99617.97;5065033;28;20028;-69
2022/03/01 03:49:29;;;;;;;24.20;9.68;;;;;;;-1.80;85.42;99613.38;5065776;28;20288;-69
2022/03/01 03:51:55;;;;;;;25.67;10.73;;;;;;;-1.90;85.83;99616.31;5065334;28;20017;-69
2022/03/01 03:54:21;;;;;;;15.52;7.95;;;;;;;-1.91;86.47;99609.41;5065557;28;20032;-69
2022/03/01 03:56:46;;;;;;;16.95;7.40;;;;;;;-1.89;86.12;99615.53;5065448;28;20025;-69
2022/03/01 03:59:12;;;;;;;22.55;8.95;;;;;;;-1.91;86.05;99617.16;5065389;28;20017;-69
2022/03/01 04:01:37;;;;;;;25.33;9.82;;;;;;;-1.90;85.64;99618.91;5065360;28;20051;-69
2022/03/01 04:04:04;;;;;;;15.93;7.40;;;;;;;-1.83;85.73;99615.81;5065501;28;20052;-69
2022/03/01 04:06:30;;;;;;;18.25;7.82;;;;;;;-1.82;85.54;99620.16;5065290;28;20084;-69
2022/03/01 04:08:56;;;;;;;12.98;7.05;;;;;;;-1.78;85.39;99627.19;5065340;28;20320;-69
2022/03/01 04:11:21;;;;;;;17.17;7.72;;;;;;;-1.66;85.36;99629.44;5065467;28;20021;-69
2022/03/01 04:13:46;;;;;;;17.55;8.27;;;;;;;-1.65;85.19;99626.94;5065318;28;20029;-69
2022/03/01 04:16:12;;;;;;;21.35;8.35;;;;;;;-1.61;84.86;99626.28;5065447;28;20340;-69
2022/03/01 04:18:38;;;;;;;15.07;7.50;;;;;;;-1.61;84.46;99634.00;5065203;28;20324;-69
2022/03/01 04:21:04;;;;;;;22.90;8.88;;;;;;;-1.76;83.59;99625.59;5065151;28;20088;-69
2022/03/01 04:23:30;;;;;;;15.40;8.20;;;;;;;-1.88;84.74;99629.28;5065125;28;20041;-69
2022/03/01 04:25:56;;;;;;;30.08;9.63;;;;;;;-1.90;86.28;99633.53;5065053;28;20208;-69
2022/03/01 04:28:21;;;;;;;28.38;11.50;;;;;;;-1.92;87.06;99627.41;5065173;28;20017;-69
2022/03/01 04:30:47;;;;;;;18.75;9.40;;;;;;;-1.90;87.39;99621.50;5065243;28;20089;-69
2022/03/01 04:33:12;;;;;;;28.08;9.95;;;;;;;-1.91;87.16;99624.91;5064799;28;20058;-69
2022/03/01 04:35:37;;;;;;;18.27;9.07;;;;;;;-1.96;87.13;99626.41;5064756;28;20032;-69
2022/03/01 04:38:03;;;;;;;21.45;9.13;;;;;;;-1.97;86.87;99627.19;5064912;28;20072;-69
2022/03/01 04:40:29;;;;;;;22.20;8.65;;;;;;;-2.01;86.86;99627.88;5064783;28;20017;-69
2022/03/01 04:42:54;;;;;;;15.52;7.82;;;;;;;-2.04;86.71;99627.75;5063246;28;20066;-69
2022/03/01 04:45:20;;;;;;;27.98;8.65;;;;;;;-2.18;86.13;99615.03;5063508;28;20025;-69
2022/03/01 04:47:45;;;;;;;24.55;9.05;;;;;;;-2.25;86.58;99621.59;5063698;28;20029;-69
2022/03/01 04:50:12;;;;;;;35.35;12.45;;;;;;;-2.42;88.28;99628.56;5063638;28;20036;-69
2022/03/01 04:52:37;;;;;;;21.67;9.63;;;;;;;-2.34;88.45;99619.47;5063420;28;20212;-69
2022/03/01 04:55:04;;;;;;;21.90;8.13;;;;;;;-2.20;88.59;99622.69;5063203;28;20091;-69
2022/03/01 04:57:29;;;;;;;23.85;9.75;;;;;;;-2.20;88.48;99620.13;5063431;28;20021;-69
2022/03/01 04:59:54;;;;;;;25.48;9.55;;;;;;;-2.37;88.37;99621.03;5063932;28;20352;-69
2022/03/01 05:02:21;;;;;;;30.70;12.30;;;;;;;-2.31;88.14;99629.06;5063205;28;20233;-69
2022/03/01 05:04:46;;;;;;;33.65;14.93;;;;;;;-2.27;88.32;99636.13;5063696;28;20320;-69
2022/03/01 05:07:12;;;;;;;41.38;16.00;;;;;;;-2.44;87.95;99624.13;5063784;28;20044;-67
2022/03/01 05:09:37;;;;;;;44.83;14.90;;;;;;;-2.49;88.91;99625.63;5064114;28;20325;-67
2022/03/01 05:12:03;;;;;;;33.47;13.02;;;;;;;-2.52;88.99;99615.16;5064798;28;20031;-67
2022/03/01 05:14:28;;;;;;;22.23;11.65;;;;;;;-2.74;88.63;99614.94;5064377;28;20031;-67
2022/03/01 05:16:54;;;;;;;25.17;11.55;;;;;;;-2.72;90.09;99613.34;5064483;28;20021;-67
2022/03/01 05:19:19;;;;;;;24.48;11.05;;;;;;;-2.69;90.65;99613.50;5064660;28;20017;-67
2022/03/01 05:21:44;;;;;;;28.48;11.45;;;;;;;-2.67;90.99;99614.44;5064354;28;20035;-67
2022/03/01 05:24:10;;;;;;;31.52;12.30;;;;;;;-2.71;91.05;99612.53;5064236;28;20062;-67
2022/03/01 05:26:35;;;;;;;24.65;10.88;;;;;;;-2.70;90.83;99603.97;5064257;28;20021;-67
2022/03/01 05:29:01;;;;;;;20.83;10.73;;;;;;;-2.69;91.01;99616.06;5064183;28;20044;-67
2022/03/01 05:31:27;;;;;;;36.83;15.57;;;;;;;-2.78;90.56;99605.31;5064259;28;20020;-67
2022/03/01 05:33:52;;;;;;;34.97;16.35;;;;;;;-2.83;90.21;99610.25;5063690;28;20020;-67
2022/03/01 05:36:19;;;;;;;37.28;17.17;;;;;;;-2.80;90.31;99609.50;5064109;28;20020;-67
2022/03/01 05:38:44;;;;;;;34.17;15.98;;;;;;;-2.85;89.27;99603.28;5064140;28;20021;-67
2022/03/01 05:41:10;;;;;;;32.58;13.07;;;;;;;-2.91;89.41;99608.13;5064090;28;20024;-67
2022/03/01 05:43:37;;;;;;;31.95;14.68;;;;;;;-2.89;89.81;99607.38;5064022;28;20377;-67
2022/03/01 05:46:02;;;;;;;35.92;11.85;;;;;;;-2.94;89.48;99613.13;5064026;28;20070;-67
2022/03/01 05:48:28;;;;;;;26.77;12.68;;;;;;;-2.98;89.23;99613.75;5063916;28;20020;-67
2022/03/01 05:50:55;;;;;;;34.47;12.82;;;;;;;-2.94;89.19;99618.28;5064196;28;20328;-67
2022/03/01 05:53:20;;;;;;;16.45;8.30;;;;;;;-2.91;89.01;99619.28;5064014;28;20024;-67
2022/03/01 05:55:46;;;;;;;18.58;7.22;;;;;;;-2.65;88.70;99623.13;5063897;28;20043;-67
2022/03/01 05:58:11;;;;;;;22.73;8.43;;;;;;;-2.63;87.72;99618.91;5063968;28;20021;-68
2022/03/01 06:00:37;;;;;;;19.77;9.05;;;;;;;-2.68;86.80;99622.97;5063810;28;20045;-67
2022/03/01 06:03:02;;;;;;;33.90;10.48;;;;;;;-2.90;86.88;99628.81;5063813;28;20025;-67
2022/03/01 06:05:29;;;;;;;18.23;6.10;;;;;;;-2.98;86.90;99626.63;5063802;28;20028;-67
2022/03/01 06:07:55;;;;;;;25.17;10.93;;;;;;;-2.91;86.97;99629.59;5063692;28;20092;-67
2022/03/01 06:10:21;;;;;;;21.17;6.63;;;;;;;-2.90;87.40;99636.53;5064036;28;20028;-67
2022/03/01 06:12:47;;;;;;;20.38;6.80;;;;;;;-2.84;87.10;99646.25;5063749;28;20021;-67
2022/03/01 06:15:13;;;;;;;20.38;8.63;;;;;;;-2.83;86.84;99653.16;5063718;28;20027;-67
2022/03/01 06:17:39;;;;;;;17.80;7.40;;;;;;;-2.85;87.61;99659.94;5063704;28;20255;-67
2022/03/01 06:20:06;;;;;;;14.32;8.85;;;;;;;-2.80;87.38;99655.88;5063618;28;20025;-67
2022/03/01 06:22:31;;;;;;;21.05;8.68;;;;;;;-2.89;87.39;99668.28;5063586;28;20029;-67
2022/03/01 06:24:58;;;;;;;19.23;7.40;;;;;;;-2.86;87.46;99673.59;5063550;28;20028;-67
2022/03/01 06:27:24;;;;;;;15.77;6.75;;;;;;;-2.85;87.64;99665.09;5063786;28;20024;-67
2022/03/01 06:29:50;;;;;;;13.25;6.20;;;;;;;-2.87;87.35;99677.88;5063593;28;20024;-67
2022/03/01 06:32:15;;;;;;;19.17;7.00;;;;;;;-2.81;87.76;99678.16;5063548;28;20020;-67
2022/03/01 06:34:41;;;;;;;16.58;7.30;;;;;;;-2.78;87.55;99677.44;5063544;28;20025;-67
2022/03/01 06:37:12;;;;;;;99.28;30.98;;;;;;;-2.79;87.30;99680.81;5063497;28;20024;-67
2022/03/01 06:39:40;;;;;;;85.00;23.63;;;;;;;-2.80;87.80;99671.31;5063513;28;20048;-67
2022/03/01 06:42:05;;;;;;;27.55;11.23;;;;;;;-2.81;87.93;99674.72;5063441;28;20032;-67
2022/03/01 06:44:31;;;;;;;22.40;8.48;;;;;;;-2.69;88.67;99677.91;5064032;28;20088;-67
2022/03/01 06:46:56;;;;;;;46.78;14.10;;;;;;;-2.69;89.06;99667.59;5067233;28;20027;-67
2022/03/01 06:49:22;;;;;;;40.35;13.48;;;;;;;-2.60;89.35;99668.91;5067523;28;20028;-67
2022/03/01 06:51:48;;;;;;;25.23;9.95;;;;;;;-2.51;89.22;99668.47;5067246;28;20029;-67
2022/03/01 06:54:13;;;;;;;38.72;11.48;;;;;;;-2.38;89.05;99665.66;5067215;28;20024;-67
2022/03/01 06:56:38;;;;;;;18.00;7.75;;;;;;;-2.08;89.02;99664.53;5067229;28;20056;-67
2022/03/01 06:59:04;;;;;;;26.02;11.23;;;;;;;-1.92;88.60;99658.34;5067093;28;20025;-67
2022/03/01 07:01:29;;;;;;;22.08;8.57;;;;;;;-1.65;87.72;99664.78;5066924;28;20360;-67
2022/03/01 07:03:55;;;;;;;17.48;8.25;;;;;;;-1.47;86.80;99662.97;5066980;28;20025;-67
2022/03/01 07:06:20;;;;;;;18.55;8.05;;;;;;;-1.10;85.96;99659.50;5066945;28;20024;-67
2022/03/01 07:08:46;;;;;;;20.23;9.07;;;;;;;-0.58;84.23;99667.66;5066816;28;20032;-67
2022/03/01 07:11:11;;;;;;;21.15;8.38;;;;;;;-0.05;82.43;99670.69;5067129;28;20021;-67
2022/03/01 07:13:37;;;;;;;17.48;6.78;;;;;;;0.32;79.88;99685.91;5066947;28;20076;-68
2022/03/01 07:16:05;;;;;;;18.80;8.45;;;;;;;0.95;77.52;99675.28;5066715;28;20048;-68
2022/03/01 07:18:30;;;;;;;27.30;10.27;;;;;;;1.52;74.89;99682.41;5066725;28;20052;-68
2022/03/01 07:20:56;;;;;;;20.30;8.93;;;;;;;1.81;72.06;99679.03;5066686;28;20067;-68
2022/03/01 07:23:21;;;;;;;24.25;8.30;;;;;;;2.43;70.38;99688.75;5066688;28;20088;-68
2022/03/01 07:25:47;;;;;;;28.33;9.15;;;;;;;2.67;67.19;99695.53;5066532;28;20032;-68
2022/03/01 07:28:12;;;;;;;29.88;8.65;;;;;;;3.08;66.10;99699.25;5066445;28;20136;-68
2022/03/01 07:30:38;;;;;;;35.35;10.57;;;;;;;3.80;65.18;99696.78;5066771;28;20025;-68
2022/03/01 07:33:03;;;;;;;23.58;9.35;;;;;;;3.97;63.70;99705.91;5066688;28;20059;-68
2022/03/01 07:35:29;;;;;;;25.95;9.57;;;;;;;4.15;61.28;99703.72;5066413;28;20263;-68
2022/03/01 07:37:55;;;;;;;27.20;9.85;;;;;;;4.28;60.92;99695.31;5066365;28;20048;-68
2022/03/01 07:40:23;;;;;;;21.50;9.07;;;;;;;4.73;59.98;99692.81;5066561;28;20020;-68
2022/03/01 07:42:49;;;;;;;19.63;8.50;;;;;;;5.35;58.51;99671.41;5066263;28;20021;-68
2022/03/01 07:45:15;;;;;;;21.70;8.80;;;;;;;5.61;57.95;99659.69;5066253;28;20025;-68
2022/03/01 07:47:40;;;;;;;19.60;9.23;;;;;;;5.95;57.20;99641.09;5066395;28;20317;-68
2022/03/01 07:50:07;;;;;;;22.45;10.07;;;;;;;6.63;56.83;99648.16;5066429;28;20251;-68
2022/03/01 07:52:32;;;;;;;18.55;8.52;;;;;;;6.85;55.92;99636.19;5066361;28;20044;-68
2022/03/01 07:54:58;;;;;;;22.90;9.70;;;;;;;6.92;55.84;99626.63;5065871;28;20325;-68
2022/03/01 07:57:23;;;;;;;11.35;5.85;;;;;;;6.75;53.21;99650.03;5065800;28;20025;-68
2022/03/01 07:59:49;;;;;;;17.33;7.57;;;;;;;6.45;53.61;99631.31;5065815;28;20043;-68
2022/03/01 08:02:14;;;;;;;14.23;7.20;;;;;;;6.98;52.62;99627.59;5065903;28;20029;-68
2022/03/01 08:04:41;;;;;;;14.48;6.90;;;;;;;7.61;51.74;99633.44;5065886;28;20036;-68
2022/03/01 08:07:09;;;;;;;16.25;5.82;;;;;;;8.17;51.45;99629.47;5065809;28;20084;-68
2022/03/01 08:09:35;;;;;;;11.70;5.95;;;;;;;8.76;48.45;99630.66;5065738;28;20048;-68
2022/03/01 08:12:02;;;;;;;12.02;6.15;;;;;;;8.17;47.04;99613.72;5065990;28;20025;-68
2022/03/01 08:14:30;;;;;;;14.02;6.53;;;;;;;7.41;49.02;99608.84;5065937;28;20020;-68
2022/03/01 08:16:55;;;;;;;17.15;6.38;;;;;;;8.31;47.98;99609.47;5065635;28;20036;-68
2022/03/01 08:19:21;;;;;;;13.75;6.97;;;;;;;8.09;47.73;99597.09;5065627;28;20051;-68
2022/03/01 08:21:46;;;;;;;15.05;6.05;;;;;;;8.44;47.36;99606.03;5065588;28;20032;-68
2022/03/01 08:24:11;;;;;;;11.85;6.35;;;;;;;8.32;47.17;99592.88;5065432;28;20032;-68
2022/03/01 08:26:38;;;;;;;12.70;6.47;;;;;;;9.07;45.62;99594.88;5065489;28;20336;-68
2022/03/01 08:29:03;;;;;;;14.57;6.70;;;;;;;9.06;44.92;99634.25;5065323;28;20082;-68
2022/03/01 08:31:28;;;;;;;11.50;6.60;;;;;;;8.89;44.53;99584.31;5065360;28;20399;-68
2022/03/01 08:33:54;;;;;;;13.60;6.43;;;;;;;9.29;44.11;99595.75;5065306;28;20063;-68
2022/03/01 08:36:19;;;;;;;14.63;7.25;;;;;;;9.21;42.95;99597.53;5065484;28;20061;-68
2022/03/01 08:38:45;;;;;;;17.20;6.57;;;;;;;8.89;44.26;99570.34;5065301;28;20264;-68
2022/03/01 08:41:10;;;;;;;14.95;7.45;;;;;;;9.13;44.90;99573.88;5065162;28;20032;-68
2022/03/01 08:43:36;;;;;;;12.90;6.15;;;;;;;9.41;44.26;99569.50;5065121;28;20337;-68
2022/03/01 08:46:01;;;;;;;11.80;6.05;;;;;;;9.51;41.82;99560.75;5065064;28;20356;-68
2022/03/01 08:48:27;;;;;;;12.30;5.75;;;;;;;10.16;41.49;99565.03;5064969;28;20071;-68
2022/03/01 08:50:53;;;;;;;10.93;5.90;;;;;;;9.27;41.92;99555.50;5064992;28;20024;-68
2022/03/01 08:53:19;;;;;;;10.60;5.70;;;;;;;9.66;42.85;99561.63;5064951;28;20052;-68
2022/03/01 08:55:45;;;;;;;10.23;4.95;;;;;;;9.56;41.75;99564.25;5064950;28;20325;-68
2022/03/01 08:58:12;;;;;;;13.48;6.50;;;;;;;8.67;43.51;99562.38;5064840;28;20067;-68
2022/03/01 09:00:37;;;;;;;13.77;6.25;;;;;;;8.43;45.54;99562.31;5064629;28;20045;-68
2022/03/01 09:03:03;;;;;;;12.77;6.60;;;;;;;9.08;44.24;99569.50;5064755;28;20032;-68
2022/03/01 09:05:29;;;;;;;14.32;6.22;;;;;;;9.00;43.63;99556.34;5064704;28;20028;-68
2022/03/01 09:07:55;;;;;;;14.90;6.07;;;;;;;8.85;43.43;99550.22;5063851;28;20025;-68
2022/03/01 09:10:21;;;;;;;12.57;6.07;;;;;;;9.74;41.55;99569.47;5064866;28;20213;-68
2022/03/01 09:12:51;;;;;;;17.42;6.18;;;;;;;9.66;42.43;99566.00;5064575;28;20031;-68
2022/03/01 09:15:18;;;;;;;13.15;6.40;;;;;;;9.59;41.33;99566.88;5064835;28;20024;-68
2022/03/01 09:17:44;;;;;;;12.90;6.43;;;;;;;9.41;40.99;99574.75;5064514;28;20339;-68
2022/03/01 09:20:10;;;;;;;11.40;5.75;;;;;;;9.04;41.13;99567.72;5064510;28;20032;-68
2022/03/01 09:22:35;;;;;;;11.07;5.90;;;;;;;8.70;41.61;99572.00;5064399;28;20027;-68
2022/03/01 09:25:04;;;;;;;15.35;6.65;;;;;;;8.68;42.42;99558.03;5064294;28;20020;-68
2022/03/01 09:27:29;;;;;;;15.43;5.90;;;;;;;9.44;41.07;99569.50;5064197;28;20032;-68
2022/03/01 09:29:55;;;;;;;12.55;5.35;;;;;;;10.04;40.76;99585.22;5064270;28;20088;-68
2022/03/01 09:32:20;;;;;;;10.48;5.72;;;;;;;9.56;40.78;99569.50;5064287;28;20025;-68
2022/03/01 09:34:45;;;;;;;11.10;5.90;;;;;;;8.99;42.71;99570.34;5064206;28;20194;-68
2022/03/01 09:37:11;;;;;;;12.82;5.88;;;;;;;9.18;41.59;99576.50;5064166;28;20017;-68
2022/03/01 09:39:36;;;;;;;14.95;6.43;;;;;;;9.77;40.37;99577.34;5064369;28;20023;-68
2022/03/01 09:42:02;;;;;;;13.65;6.25;;;;;;;10.60;38.64;99599.13;5064110;28;20221;-68
2022/03/01 09:44:28;;;;;;;11.98;5.88;;;;;;;9.76;37.98;99562.47;5064325;28;20032;-68
2022/03/01 09:46:54;;;;;;;10.75;5.38;;;;;;;10.55;38.39;99571.91;5063931;28;20023;-68
2022/03/01 09:49:19;;;;;;;12.93;6.20;;;;;;;10.99;37.87;99567.31;5064011;28;20025;-68
2022/03/01 09:51:45;;;;;;;12.13;5.88;;;;;;;10.30;38.03;99565.00;5063951;28;20025;-68
2022/03/01 09:54:10;;;;;;;14.77;6.22;;;;;;;10.44;37.90;99565.84;5063933;28;20051;-68
2022/03/01 09:56:36;;;;;;;10.48;6.00;;;;;;;10.51;38.03;99557.88;5063902;28;20051;-68
2022/03/01 09:59:02;;;;;;;11.48;5.38;;;;;;;10.76;37.84;99558.66;5063860;28;20021;-68
2022/03/01 10:01:28;;;;;;;15.52;6.63;;;;;;;9.97;38.22;99551.94;5063697;28;20049;-68
2022/03/01 10:04:06;;;;;;;10.43;5.78;;;;;;;9.79;39.65;99558.09;5063816;28;20043;-68
2022/03/01 10:06:39;;;;;;;9.02;5.20;;;;;;;10.19;39.27;99551.03;5063847;28;20035;-68
2022/03/01 10:09:15;;;;;;;12.00;6.00;;;;;;;10.75;37.86;99563.03;5063731;28;20032;-68
2022/03/01 10:11:41;;;;;;;15.07;6.80;;;;;;;10.42;38.79;99557.06;5063834;28;20325;-68
2022/03/01 10:14:07;;;;;;;10.68;6.07;;;;;;;11.16;38.25;99570.69;5064023;28;20031;-68
2022/03/01 10:16:41;;;;;;;12.55;5.90;;;;;;;11.07;38.74;99575.16;5063709;28;20084;-68
2022/03/01 10:19:16;;;;;;;10.88;5.72;;;;;;;11.15;37.39;99571.59;5065344;28;20028;-69
2022/03/01 10:21:42;;;;;;;8.98;5.03;;;;;;;11.15;37.25;99573.34;5067849;28;20087;-69
2022/03/01 10:24:08;;;;;;;11.73;5.90;;;;;;;11.17;37.15;99567.16;5067654;28;20025;-69
2022/03/01 10:26:37;;;;;;;9.27;4.97;;;;;;;10.57;36.50;99557.00;5067715;28;20051;-69
2022/03/01 10:29:04;;;;;;;10.23;5.53;;;;;;;10.30;38.26;99554.47;5067589;28;20321;-69
2022/03/01 10:31:32;;;;;;;11.90;6.13;;;;;;;10.64;36.03;99554.31;5067620;28;20052;-69
2022/03/01 10:34:03;;;;;;;8.98;5.35;;;;;;;11.15;35.86;99568.94;5067548;28;20020;-69
2022/03/01 10:36:46;;;;;;;9.55;4.80;;;;;;;10.44;36.95;99555.31;5067597;28;20025;-69
2022/03/01 10:39:16;;;;;;;10.52;5.15;;;;;;;10.28;37.12;99556.22;5067559;28;20339;-69
2022/03/01 10:41:47;;;;;;;11.05;4.95;;;;;;;10.75;36.45;99570.94;5067501;28;20024;-68
2022/03/01 10:44:14;;;;;;;10.55;5.25;;;;;;;9.97;37.65;99559.81;5067418;28;20060;-68
2022/03/01 10:46:43;;;;;;;8.75;4.85;;;;;;;10.37;36.92;99569.34;5067351;28;20052;-68
2022/03/01 10:49:11;;;;;;;11.68;5.47;;;;;;;9.78;36.85;99574.72;5067250;28;20252;-68
2022/03/01 10:51:49;;;;;;;10.30;5.03;;;;;;;9.76;36.77;99565.09;5067229;28;20031;-68
2022/03/01 10:54:38;;;;;;;9.40;4.65;;;;;;;9.95;36.27;99564.19;5067201;28;20328;-68
2022/03/01 10:57:06;;;;;;;9.85;5.05;;;;;;;10.17;35.75;99571.19;5067177;28;20017;-68
2022/03/01 10:59:34;;;;;;;9.48;4.45;;;;;;;10.12;35.08;99567.69;5066910;28;20020;-68
2022/03/01 11:02:00;;;;;;;8.15;4.47;;;;;;;9.27;34.89;99547.63;5067097;28;20025;-68
2022/03/01 11:04:27;;;;;;;11.43;5.53;;;;;;;9.25;36.88;99557.25;5067030;28;20216;-68
2022/03/01 11:06:54;;;;;;;9.68;4.40;;;;;;;9.60;36.99;99552.84;5066949;28;20017;-68
2022/03/01 11:09:23;;;;;;;9.35;4.65;;;;;;;9.29;36.91;99554.63;5067026;28;20372;-68
2022/03/01 11:11:51;;;;;;;11.20;4.47;;;;;;;8.78;36.89;99534.44;5066858;28;20029;-68
2022/03/01 11:14:23;;;;;;;8.90;5.00;;;;;;;9.26;36.66;99543.22;5066946;28;20107;-68
2022/03/01 11:17:03;;;;;;;8.52;4.43;;;;;;;9.14;36.64;99538.00;5066841;28;20025;-68
2022/03/01 11:20:00;;;;;;;7.78;4.20;;;;;;;8.93;36.17;99535.31;5066775;28;20021;-68
2022/03/01 11:22:30;;;;;;;9.05;4.68;;;;;;;8.73;35.88;99525.66;5066643;28;20074;-68